Time;durP1;ratioP1;P1;durP2;ratioP2;P2;SDS_P1;SDS_P2;PMS_P1;PMS_P2;Temp;Humidity;BMP_temperature;BMP_pressure;BME280_temperature;BME280_humidity;BME280_pressure;Samples;Min_cycle;Max_cycle;Signal;HPM_P1;HPM_P2
2022/06/24 00:01:42;;;;;;;10.00;4.07;;;23.70;99.90;;;;;;5136084;27;20236;-54
2022/06/24 00:04:08;;;;;;;11.52;4.68;;;23.50;99.90;;;;;;5136253;27;20160;-54
2022/06/24 00:06:46;;;;;;;15.77;4.90;;;23.50;99.90;;;;;;5135924;27;20164;-54
2022/06/24 00:09:13;;;;;;;8.48;4.55;;;23.60;99.90;;;;;;5136511;27;20191;-54
2022/06/24 00:11:38;;;;;;;8.85;4.20;;;23.60;99.90;;;;;;5135921;27;20171;-54
2022/06/24 00:14:10;;;;;;;6.57;3.60;;;23.70;99.90;;;;;;5136090;27;20525;-53
2022/06/24 00:17:21;;;;;;;10.55;4.25;;;23.80;99.90;;;;;;5135916;27;20627;-53
2022/06/24 00:19:56;;;;;;;14.35;4.05;;;23.80;99.90;;;;;;5130695;27;20183;-54
2022/06/24 00:22:23;;;;;;;13.88;5.13;;;23.60;99.90;;;;;;5135652;27;20172;-54
2022/06/24 00:25:22;;;;;;;17.67;6.82;;;23.40;99.90;;;;;;5116961;27;20525;-54
2022/06/24 00:28:02;;;;;;;14.05;6.47;;;23.30;99.90;;;;;;5135808;27;20160;-54
2022/06/24 00:30:29;;;;;;;25.52;6.55;;;23.40;99.90;;;;;;5135516;27;20171;-55
2022/06/24 00:33:09;;;;;;;12.13;5.38;;;23.10;99.90;;;;;;5135629;27;20744;-55
2022/06/24 00:36:06;;;;;;;15.70;6.32;;;23.00;99.90;;;;;;5135468;27;20650;-55
2022/06/24 00:38:36;;;;;;;17.25;5.22;;;23.00;99.90;;;;;;5114775;27;20176;-54
2022/06/24 00:41:12;;;;;;;14.23;5.55;;;22.90;99.90;;;;;;5135369;27;20160;-54
2022/06/24 00:43:45;;;;;;;13.13;5.25;;;23.00;99.90;;;;;;5135293;27;20255;-55
2022/06/24 00:46:24;;;;;;;11.95;5.72;;;22.10;99.90;;;;;;5135561;27;20167;-55
2022/06/24 00:48:56;;;;;;;13.27;5.95;;;23.00;99.90;;;;;;5135296;27;20502;-55
2022/06/24 00:51:22;;;;;;;12.80;5.47;;;23.00;99.90;;;;;;5135149;27;20168;-55
2022/06/24 00:53:52;;;;;;;12.90;5.60;;;23.00;99.90;;;;;;5134921;27;20164;-55
2022/06/24 00:56:21;;;;;;;11.50;4.72;;;23.00;99.90;;;;;;5135087;27;20215;-55
2022/06/24 00:58:56;;;;;;;12.55;6.15;;;23.00;99.90;;;;;;5116576;27;20164;-55
2022/06/24 01:01:34;;;;;;;15.52;6.18;;;22.80;99.90;;;;;;5135307;27;20198;-55
2022/06/24 01:04:00;;;;;;;14.15;6.10;;;22.80;99.90;;;;;;5134949;27;20159;-55
2022/06/24 01:06:27;;;;;;;17.30;6.65;;;22.70;99.90;;;;;;5134875;27;20179;-56
2022/06/24 01:08:54;;;;;;;8.95;5.85;;;22.60;99.90;;;;;;5134831;27;20254;-55
2022/06/24 01:11:33;;;;;;;13.68;6.03;;;22.60;99.90;;;;;;5134719;27;20724;-55
2022/06/24 01:13:59;;;;;;;12.15;5.63;;;22.50;99.90;;;;;;5134920;27;20175;-55
2022/06/24 01:16:26;;;;;;;9.43;3.88;;;22.40;99.90;;;;;;5134561;27;20199;-55
2022/06/24 01:18:54;;;;;;;7.03;4.55;;;22.10;99.90;;;;;;5134777;27;20238;-55
2022/06/24 01:21:37;;;;;;;6.82;3.72;;;22.00;99.90;;;;;;5134601;27;20369;-55
2022/06/24 01:24:12;;;;;;;8.88;3.47;;;21.90;99.90;;;;;;5134477;27;20160;-55
2022/06/24 01:26:40;;;;;;;5.35;3.10;;;21.90;99.90;;;;;;5134569;27;20163;-55
2022/06/24 01:29:06;;;;;;;14.02;3.88;;;21.90;99.90;;;;;;5134464;27;20163;-55
2022/06/24 01:31:33;;;;;;;4.53;3.03;;;21.80;99.90;;;;;;5134301;27;20164;-55
2022/06/24 01:33:59;;;;;;;9.57;3.40;;;21.60;99.90;;;;;;5134650;27;20168;-54
2022/06/24 01:36:24;;;;;;;7.95;3.40;;;21.50;99.90;;;;;;5134137;27;20530;-55
2022/06/24 01:38:50;;;;;;;8.00;3.28;;;21.50;99.90;;;;;;5134303;27;20164;-55
2022/06/24 01:41:17;;;;;;;3.38;2.55;;;21.50;99.90;;;;;;5134298;27;20213;-55
2022/06/24 01:43:43;;;;;;;7.18;3.20;;;21.40;99.90;;;;;;5134304;27;20222;-55
2022/06/24 01:46:11;;;;;;;6.88;3.20;;;21.30;99.90;;;;;;5134143;27;20168;-55
2022/06/24 01:48:37;;;;;;;5.93;3.35;;;21.10;99.90;;;;;;5134264;27;20160;-55
2022/06/24 01:51:03;;;;;;;4.72;3.03;;;21.10;99.90;;;;;;5134071;27;20163;-55
2022/06/24 01:53:29;;;;;;;7.22;3.28;;;21.10;99.90;;;;;;5134024;27;20615;-55
2022/06/24 01:55:55;;;;;;;4.05;3.28;;;21.10;99.90;;;;;;5133631;27;20363;-55
2022/06/24 01:58:20;;;;;;;6.22;3.15;;;21.10;99.90;;;;;;5133921;27;20199;-55
2022/06/24 02:00:46;;;;;;;4.47;3.00;;;21.00;99.90;;;;;;5133912;27;20164;-55
2022/06/24 02:03:11;;;;;;;5.22;3.30;;;21.00;99.90;;;;;;5134121;27;20648;-55
2022/06/24 02:05:38;;;;;;;6.20;3.60;;;21.00;99.90;;;;;;5133495;27;20645;-55
2022/06/24 02:08:04;;;;;;;4.75;3.75;;;21.00;99.90;;;;;;5133669;27;20175;-55
2022/06/24 02:13:29;;;;;;;3.63;2.92;;;20.90;99.90;;;;;;5133952;27;20209;-54
2022/06/24 02:16:04;;;;;;;6.00;3.40;;;20.90;99.90;;;;;;5133682;27;20214;-54
2022/06/24 02:18:31;;;;;;;5.10;3.50;;;20.80;99.90;;;;;;5133461;27;20160;-53
2022/06/24 02:20:59;;;;;;;6.97;3.97;;;20.90;99.90;;;;;;5133436;27;20250;-54
2022/06/24 02:23:25;;;;;;;4.75;3.30;;;20.90;99.90;;;;;;5133483;27;20164;-54
2022/06/24 02:25:51;;;;;;;6.22;3.50;;;20.80;99.90;;;;;;5133315;27;20196;-54
2022/06/24 02:28:17;;;;;;;5.93;4.13;;;20.80;99.90;;;;;;5133409;27;20531;-54
2022/06/24 02:30:46;;;;;;;5.72;3.58;;;20.80;99.90;;;;;;5133693;27;20160;-55
2022/06/24 02:33:12;;;;;;;5.47;3.75;;;20.70;99.90;;;;;;5133486;27;20604;-54
2022/06/24 02:35:39;;;;;;;5.32;3.75;;;20.80;99.90;;;;;;5133114;27;20199;-55
2022/06/24 02:38:05;;;;;;;4.30;3.83;;;20.80;99.90;;;;;;5133172;27;20164;-55
2022/06/24 02:40:49;;;;;;;7.15;3.67;;;20.90;99.90;;;;;;5133204;27;20174;-54
2022/06/24 02:43:19;;;;;;;5.57;3.95;;;20.90;99.90;;;;;;5133227;27;20615;-54
2022/06/24 02:45:48;;;;;;;6.53;3.42;;;20.80;99.90;;;;;;5132967;27;20164;-55
2022/06/24 02:48:16;;;;;;;5.32;4.65;;;20.80;99.90;;;;;;5133680;27;20174;-55
2022/06/24 02:50:47;;;;;;;6.53;4.32;;;20.90;99.90;;;;;;5133605;27;20164;-54
2022/06/24 02:53:14;;;;;;;7.78;4.45;;;20.90;99.90;;;;;;5133615;27;20176;-54
2022/06/24 02:55:41;;;;;;;6.85;4.30;;;20.90;99.90;;;;;;5133096;28;20211;-54
2022/06/24 02:58:07;;;;;;;5.95;4.82;;;21.00;99.90;;;;;;5132883;28;20171;-54
2022/06/24 03:00:33;;;;;;;8.98;4.40;;;20.90;99.90;;;;;;5133041;28;20160;-54
2022/06/24 03:02:58;;;;;;;5.95;5.03;;;20.90;99.90;;;;;;5133210;28;20566;-54
2022/06/24 03:05:24;;;;;;;9.27;4.95;;;20.90;99.90;;;;;;5132890;28;20164;-54
2022/06/24 03:07:50;;;;;;;6.45;4.60;;;20.90;99.90;;;;;;5132979;28;20641;-54
2022/06/24 03:10:16;;;;;;;8.80;4.70;;;20.90;99.90;;;;;;5132824;28;20172;-55
2022/06/24 03:12:43;;;;;;;5.72;5.03;;;20.90;99.90;;;;;;5133225;28;20175;-55
2022/06/24 03:15:09;;;;;;;5.15;4.65;;;20.90;99.90;;;;;;5132783;28;20191;-56
2022/06/24 03:17:35;;;;;;;6.18;5.07;;;21.00;99.90;;;;;;5135007;27;20229;-55
2022/06/24 03:20:01;;;;;;;8.30;4.85;;;21.00;99.90;;;;;;5137238;27;20164;-55
2022/06/24 03:22:27;;;;;;;6.07;4.65;;;21.00;99.90;;;;;;5136807;27;20194;-55
2022/06/24 03:24:52;;;;;;;5.97;5.05;;;21.00;99.90;;;;;;5136968;27;20178;-55
2022/06/24 03:27:18;;;;;;;9.32;5.82;;;21.00;99.90;;;;;;5118560;27;20164;-55
2022/06/24 03:29:43;;;;;;;7.45;5.43;;;21.10;99.90;;;;;;5136706;27;20172;-55
2022/06/24 03:32:09;;;;;;;8.52;5.55;;;21.10;99.90;;;;;;5137057;27;20542;-55
2022/06/24 03:34:35;;;;;;;8.93;4.97;;;21.30;99.90;;;;;;5136598;27;20200;-53
2022/06/24 03:37:01;;;;;;;5.72;4.88;;;21.20;99.90;;;;;;5136599;27;20203;-52
2022/06/24 03:39:26;;;;;;;8.02;5.50;;;21.20;99.90;;;;;;5136594;27;20172;-53
2022/06/24 03:41:52;;;;;;;7.82;5.50;;;21.30;99.90;;;;;;5118187;27;20179;-53
2022/06/24 03:44:17;;;;;;;7.43;5.68;;;21.40;99.90;;;;;;5136638;27;20245;-55
2022/06/24 03:46:43;;;;;;;8.50;5.07;;;21.40;99.90;;;;;;5136713;27;20525;-56
2022/06/24 03:49:09;;;;;;;8.38;5.28;;;21.30;99.90;;;;;;5136828;27;20621;-54
2022/06/24 03:51:36;;;;;;;7.53;5.30;;;21.20;99.90;;;;;;5136346;27;20167;-54
2022/06/24 03:54:01;;;;;;;8.10;5.18;;;21.20;99.90;;;;;;5136267;27;20260;-54
2022/06/24 03:56:28;;;;;;;9.38;5.28;;;21.20;99.90;;;;;;5136092;27;20306;-54
2022/06/24 03:58:53;;;;;;;7.70;5.43;;;21.30;99.90;;;;;;5136214;27;20217;-53
2022/06/24 04:01:19;;;;;;;6.93;5.20;;;21.30;99.90;;;;;;5136122;27;20160;-53
2022/06/24 04:03:45;;;;;;;7.32;5.55;;;21.30;99.90;;;;;;5136124;27;20203;-54
2022/06/24 04:06:10;;;;;;;8.30;5.30;;;21.20;99.90;;;;;;5136329;27;20236;-54
2022/06/24 04:08:36;;;;;;;7.25;5.40;;;21.20;99.90;;;;;;5136009;27;20160;-53
2022/06/24 04:11:10;;;;;;;9.30;5.80;;;21.00;99.90;;;;;;5135941;27;20691;-54
2022/06/24 04:13:35;;;;;;;7.82;4.82;;;21.20;99.90;;;;;;5135913;27;20239;-54
2022/06/24 04:16:01;;;;;;;10.82;5.55;;;21.10;99.90;;;;;;5135696;27;20623;-54
2022/06/24 04:18:26;;;;;;;7.82;5.25;;;21.10;99.90;;;;;;5135913;27;20167;-54
2022/06/24 04:20:52;;;;;;;12.52;5.32;;;21.20;99.90;;;;;;5135838;27;20250;-53
2022/06/24 04:23:17;;;;;;;5.78;5.18;;;21.20;99.90;;;;;;5135723;27;20518;-52
2022/06/24 04:25:46;;;;;;;8.40;5.70;;;21.30;99.90;;;;;;5117251;27;20179;-52
2022/06/24 04:28:12;;;;;;;13.65;6.25;;;21.30;99.90;;;;;;5135587;27;20220;-55
2022/06/24 04:30:37;;;;;;;7.32;5.45;;;21.30;99.90;;;;;;5135558;27;20176;-55
2022/06/24 04:33:03;;;;;;;8.93;5.80;;;21.20;99.90;;;;;;5135584;27;20168;-54
2022/06/24 04:35:29;;;;;;;10.48;5.43;;;21.40;99.90;;;;;;5135361;27;20209;-54
2022/06/24 04:37:54;;;;;;;8.23;5.70;;;21.50;99.90;;;;;;5135368;27;20164;-53
2022/06/24 04:40:20;;;;;;;7.05;4.70;;;21.50;99.90;;;;;;5135295;27;20175;-53
2022/06/24 04:42:46;;;;;;;7.30;4.68;;;21.40;99.90;;;;;;5135387;27;20160;-52
2022/06/24 04:45:11;;;;;;;6.03;4.32;;;21.30;99.90;;;;;;5135859;27;20164;-53
2022/06/24 04:47:38;;;;;;;5.35;4.85;;;21.30;99.90;;;;;;5135107;27;20654;-53
2022/06/24 04:50:04;;;;;;;10.80;4.88;;;21.30;99.90;;;;;;5135209;27;20247;-53
2022/06/24 04:52:31;;;;;;;9.13;5.05;;;21.20;99.90;;;;;;5116690;27;20171;-55
2022/06/24 04:54:57;;;;;;;11.02;5.32;;;21.10;99.90;;;;;;5116666;27;20196;-55
2022/06/24 04:57:22;;;;;;;8.57;5.13;;;21.20;99.90;;;;;;5134907;27;20228;-55
2022/06/24 04:59:48;;;;;;;12.43;5.65;;;21.30;99.90;;;;;;5134911;27;20156;-54
2022/06/24 05:02:14;;;;;;;12.85;5.47;;;21.20;99.90;;;;;;5135324;27;20678;-52
2022/06/24 05:04:39;;;;;;;12.23;5.80;;;21.30;99.90;;;;;;5135282;27;20163;-53
2022/06/24 05:07:06;;;;;;;7.50;4.95;;;21.20;99.90;;;;;;5134951;27;20293;-53
2022/06/24 05:09:32;;;;;;;14.98;4.70;;;21.10;99.90;;;;;;5134505;27;20254;-53
2022/06/24 05:11:58;;;;;;;9.93;4.75;;;21.20;99.90;;;;;;5134388;27;20160;-53
2022/06/24 05:14:24;;;;;;;9.55;4.70;;;21.30;99.90;;;;;;5134962;27;20164;-54
2022/06/24 05:16:50;;;;;;;9.27;5.50;;;21.20;99.90;;;;;;5134619;27;20686;-55
2022/06/24 05:19:15;;;;;;;12.20;5.60;;;21.30;99.90;;;;;;5134572;27;20160;-55
2022/06/24 05:21:41;;;;;;;8.93;5.85;;;21.30;99.90;;;;;;5135011;27;20175;-54
2022/06/24 05:24:07;;;;;;;10.52;5.78;;;21.40;99.90;;;;;;5134194;27;20209;-55
2022/06/24 05:26:33;;;;;;;11.95;6.22;;;21.30;99.90;;;;;;5134419;27;20175;-53
2022/06/24 05:28:59;;;;;;;8.98;5.55;;;21.30;99.90;;;;;;5133284;27;20191;-53
2022/06/24 05:31:25;;;;;;;8.43;4.72;;;21.40;99.90;;;;;;5134364;27;20167;-53
2022/06/24 05:33:50;;;;;;;6.05;4.22;;;21.30;99.90;;;;;;5134289;27;20503;-54
2022/06/24 05:36:16;;;;;;;9.60;4.80;;;21.40;99.90;;;;;;5115724;27;20200;-54
2022/06/24 05:38:42;;;;;;;9.55;5.28;;;21.20;99.90;;;;;;5134457;27;20254;-55
2022/06/24 05:41:08;;;;;;;8.35;5.18;;;23.50;99.90;;;;;;5133852;27;20176;-54
2022/06/24 05:43:34;;;;;;;8.02;4.55;;;21.20;99.90;;;;;;5133885;27;20163;-54
2022/06/24 05:45:59;;;;;;;6.45;4.35;;;21.30;99.90;;;;;;5133960;27;20620;-54
2022/06/24 05:48:25;;;;;;;7.60;5.15;;;21.30;99.90;;;;;;5133663;27;20181;-54
2022/06/24 05:50:51;;;;;;;11.70;4.88;;;21.20;99.90;;;;;;5134159;27;20172;-53
2022/06/24 05:56:01;;;;;;;8.88;4.85;;;21.30;99.90;;;;;;5133832;27;20356;-52
2022/06/24 05:58:28;;;;;;;8.10;5.00;;;21.40;99.90;;;;;;5133832;27;20208;-53
2022/06/24 06:00:55;;;;;;;8.15;4.72;;;21.40;99.90;;;;;;5133757;27;20156;-52
2022/06/24 06:03:24;;;;;;;9.70;5.65;;;21.50;99.90;;;;;;5133758;27;20643;-52
2022/06/24 06:05:52;;;;;;;8.88;5.07;;;21.50;99.90;;;;;;5133653;27;20241;-53
2022/06/24 06:08:18;;;;;;;9.18;4.75;;;21.60;99.90;;;;;;5115366;27;20164;-52
2022/06/24 06:10:44;;;;;;;20.10;6.03;;;21.60;99.90;;;;;;5133902;27;20539;-52
2022/06/24 06:13:11;;;;;;;11.38;5.63;;;21.60;99.90;;;;;;5133884;27;20641;-52
2022/06/24 06:15:37;;;;;;;13.93;6.22;;;21.60;99.90;;;;;;5134143;27;20214;-52
2022/06/24 06:18:02;;;;;;;10.85;5.93;;;21.70;99.90;;;;;;5133480;27;20160;-52
2022/06/24 06:20:28;;;;;;;17.33;6.03;;;21.60;99.90;;;;;;5133498;27;20172;-54
2022/06/24 06:22:54;;;;;;;16.05;6.15;;;21.60;99.90;;;;;;5133478;27;20165;-54
2022/06/24 06:25:19;;;;;;;15.27;8.52;;;21.60;99.90;;;;;;5133270;27;20191;-52
2022/06/24 06:27:45;;;;;;;10.32;6.10;;;21.50;99.90;;;;;;5133429;27;20273;-52
2022/06/24 06:30:11;;;;;;;16.10;7.50;;;21.40;99.90;;;;;;5133693;27;20171;-52
2022/06/24 06:32:37;;;;;;;9.95;6.90;;;21.40;99.90;;;;;;5133292;27;20175;-52
2022/06/24 06:35:03;;;;;;;10.60;6.05;;;21.20;99.90;;;;;;5133180;27;20160;-52
2022/06/24 06:37:29;;;;;;;8.32;5.53;;;21.20;99.90;;;;;;5133111;27;20179;-52
2022/06/24 06:39:55;;;;;;;13.52;6.22;;;21.30;99.90;;;;;;5133221;27;20160;-52
2022/06/24 06:42:21;;;;;;;13.48;5.97;;;21.10;99.90;;;;;;5133100;27;20694;-54
2022/06/24 06:44:47;;;;;;;13.30;6.38;;;21.10;99.90;;;;;;5133133;27;20196;-53
2022/06/24 06:47:12;;;;;;;8.93;4.28;;;20.90;99.90;;;;;;5133135;27;20221;-53
2022/06/24 06:49:38;;;;;;;10.63;4.88;;;20.40;99.90;;;;;;5133615;27;20172;-51
2022/06/24 06:52:04;;;;;;;7.88;4.88;;;20.20;99.90;;;;;;5132920;27;20224;-51
2022/06/24 06:54:30;;;;;;;10.35;4.53;;;20.10;99.90;;;;;;5132873;27;20168;-51
2022/06/24 06:56:56;;;;;;;7.32;4.20;;;20.00;99.90;;;;;;5132915;28;20206;-53
2022/06/24 06:59:22;;;;;;;9.85;5.20;;;20.00;99.90;;;;;;5132956;28;20164;-54
2022/06/24 07:01:48;;;;;;;8.23;4.30;;;20.10;99.90;;;;;;5132875;28;20164;-54
2022/06/24 07:04:15;;;;;;;4.53;3.28;;;20.00;99.90;;;;;;5132512;28;20199;-54
2022/06/24 07:06:41;;;;;;;5.75;3.17;;;19.90;99.90;;;;;;5133070;28;20162;-54
2022/06/24 07:09:06;;;;;;;4.93;2.88;;;19.80;99.90;;;;;;5132945;28;20160;-55
2022/06/24 07:11:32;;;;;;;4.35;3.08;;;19.70;99.90;;;;;;5132940;28;20171;-55
2022/06/24 07:13:58;;;;;;;4.40;2.63;;;19.70;99.90;;;;;;5132757;28;20168;-54
2022/06/24 07:16:23;;;;;;;3.88;3.20;;;19.60;99.90;;;;;;5132708;28;20556;-54
2022/06/24 07:18:49;;;;;;;4.85;3.22;;;19.70;99.90;;;;;;5133040;28;20164;-52
2022/06/24 07:21:15;;;;;;;4.57;3.47;;;19.70;99.90;;;;;;5132753;28;20168;-51
2022/06/24 07:23:41;;;;;;;4.53;2.75;;;19.70;99.90;;;;;;5133177;28;20559;-51
2022/06/24 07:26:06;;;;;;;4.43;3.38;;;19.90;99.90;;;;;;5133340;28;20251;-52
2022/06/24 07:28:36;;;;;;;3.75;3.20;;;19.90;99.90;;;;;;5132773;28;20152;-51
2022/06/24 07:31:12;;;;;;;7.63;3.53;;;19.90;99.90;;;;;;5132630;28;20192;-52
2022/06/24 07:33:38;;;;;;;3.65;3.25;;;20.00;99.90;;;;;;5133107;28;20202;-52
2022/06/24 07:36:03;;;;;;;4.43;3.40;;;20.10;99.90;;;;;;5132887;28;20239;-54
2022/06/24 07:38:29;;;;;;;4.43;3.63;;;20.20;99.90;;;;;;5112159;28;20546;-55
2022/06/24 07:40:55;;;;;;;3.50;3.20;;;20.30;99.90;;;;;;5111111;28;20177;-55
2022/06/24 07:43:21;;;;;;;5.25;4.05;;;20.40;99.90;;;;;;5111058;28;20259;-54
2022/06/24 07:45:47;;;;;;;4.05;3.60;;;20.50;99.90;;;;;;5110740;28;20241;-54
2022/06/24 07:48:12;;;;;;;24.80;3.65;;;20.50;99.90;;;;;;5110838;28;20574;-54
2022/06/24 07:50:38;;;;;;;5.30;3.58;;;20.50;99.90;;;;;;5110946;28;20169;-49
2022/06/24 07:53:04;;;;;;;6.43;4.53;;;20.50;99.90;;;;;;5110894;28;20196;-53
2022/06/24 07:58:13;;;;;;;6.20;4.10;;;20.50;99.90;;;;;;5110441;28;20217;-53
2022/06/24 08:00:39;;;;;;;7.70;4.35;;;20.50;99.90;;;;;;5110866;28;20168;-55
2022/06/24 08:03:05;;;;;;;5.28;4.78;;;20.40;99.90;;;;;;5111452;28;20172;-57
2022/06/24 08:05:31;;;;;;;6.00;3.90;;;20.50;99.90;;;;;;5114383;28;20160;-55
2022/06/24 08:07:56;;;;;;;7.43;4.28;;;20.60;99.90;;;;;;5114357;28;20624;-54
2022/06/24 08:10:22;;;;;;;9.15;4.03;;;20.70;99.90;;;;;;5113937;28;20196;-55
2022/06/24 08:12:48;;;;;;;4.45;3.63;;;20.70;99.90;;;;;;5113991;28;20183;-57
2022/06/24 08:15:16;;;;;;;7.15;3.38;;;20.70;99.90;;;;;;5113890;28;20223;-50
2022/06/24 08:17:41;;;;;;;3.90;3.00;;;20.70;99.90;;;;;;5114061;28;20257;-53
2022/06/24 08:20:08;;;;;;;3.78;3.03;;;20.80;99.90;;;;;;5114442;28;20164;-55
2022/06/24 08:22:34;;;;;;;6.28;3.70;;;20.70;99.90;;;;;;5113944;28;20635;-55
2022/06/24 08:24:59;;;;;;;4.80;3.17;;;20.70;99.90;;;;;;5095666;28;20270;-58
2022/06/24 08:27:25;;;;;;;5.03;2.85;;;20.90;99.90;;;;;;5113977;28;20648;-64
2022/06/24 08:29:51;;;;;;;5.55;3.40;;;20.80;99.90;;;;;;5113808;28;20169;-54
2022/06/24 08:32:16;;;;;;;4.60;3.30;;;20.90;99.90;;;;;;5113789;28;20541;-52
2022/06/24 08:34:42;;;;;;;7.43;3.63;;;20.90;99.90;;;;;;5113618;28;20164;-56
2022/06/24 08:37:07;;;;;;;7.32;3.30;;;20.80;99.90;;;;;;5113845;28;20238;-53
2022/06/24 08:39:33;;;;;;;7.00;3.50;;;21.00;99.90;;;;;;5113606;28;20169;-57
2022/06/24 08:42:02;;;;;;;5.30;3.70;;;21.00;99.90;;;;;;5124453;27;20172;-56
2022/06/24 08:44:28;;;;;;;5.13;3.72;;;21.00;99.90;;;;;;5134366;27;20225;-55
2022/06/24 08:46:53;;;;;;;7.05;3.90;;;20.90;99.90;;;;;;5134113;27;20627;-56
2022/06/24 08:49:20;;;;;;;4.40;3.97;;;21.00;99.90;;;;;;5134249;27;20645;-55
2022/06/24 08:51:47;;;;;;;5.85;3.80;;;21.00;99.90;;;;;;5133892;27;20176;-55
2022/06/24 08:54:16;;;;;;;6.40;4.90;;;20.90;99.90;;;;;;5133846;27;20203;-55
2022/06/24 08:56:42;;;;;;;6.40;4.55;;;20.90;99.90;;;;;;5133509;27;20310;-54
2022/06/24 08:59:07;;;;;;;5.13;4.45;;;21.00;99.90;;;;;;5134408;27;20251;-55
2022/06/24 09:01:39;;;;;;;5.05;4.53;;;21.00;99.90;;;;;;5133635;27;20548;-55
2022/06/24 09:04:04;;;;;;;5.00;4.38;;;21.00;99.90;;;;;;5133775;27;20156;-55
2022/06/24 09:06:37;;;;;;;4.72;3.90;;;21.20;99.90;;;;;;5133736;27;20175;-56
2022/06/24 09:09:03;;;;;;;4.68;3.90;;;21.30;99.90;;;;;;5133857;27;20168;-56
2022/06/24 09:11:37;;;;;;;5.00;4.30;;;21.50;99.90;;;;;;5133589;27;20237;-54
2022/06/24 09:14:03;;;;;;;4.88;3.97;;;21.80;99.90;;;;;;5133590;27;20164;-55
2022/06/24 09:16:28;;;;;;;5.25;4.75;;;21.90;99.90;;;;;;5133412;27;20196;-55
2022/06/24 09:19:00;;;;;;;6.72;5.05;;;22.00;99.90;;;;;;5133359;27;20168;-54
2022/06/24 09:21:28;;;;;;;6.93;5.15;;;22.10;99.90;;;;;;5133632;27;20199;-55
2022/06/24 10:43:05;;;;;;;5.13;4.05;;;25.70;99.90;;;;;;5192537;27;20530;-55
2022/06/24 10:45:34;;;;;;;4.00;3.60;;;25.70;99.90;;;;;;5192341;27;20576;-54
2022/06/24 10:48:00;;;;;;;3.85;3.45;;;25.90;99.90;;;;;;5192014;27;20169;-55
2022/06/24 10:50:25;;;;;;;5.40;3.83;;;25.90;99.90;;;;;;5192398;27;20258;-55
2022/06/24 10:52:51;;;;;;;4.93;3.85;;;26.00;99.90;;;;;;5192415;27;20259;-55
2022/06/24 10:55:21;;;;;;;4.28;3.88;;;25.70;99.90;;;;;;5192447;27;20158;-55
2022/06/24 10:57:50;;;;;;;6.25;4.35;;;25.60;99.90;;;;;;5192349;27;20158;-55
2022/06/24 11:00:39;;;;;;;8.68;3.83;;;25.60;99.90;;;;;;5192264;27;20150;-54
2022/06/24 11:03:05;;;;;;;5.32;3.45;;;25.30;99.90;;;;;;5178724;27;20181;-55
2022/06/24 11:05:36;;;;;;;10.70;3.85;;;25.30;99.90;;;;;;5192370;27;20665;-55
2022/06/24 11:08:11;;;;;;;5.22;2.92;;;25.40;99.90;;;;;;5173370;27;20161;-55
2022/06/24 11:10:37;;;;;;;4.57;3.13;;;25.30;99.90;;;;;;5192610;27;20193;-55
2022/06/24 11:13:03;;;;;;;9.73;3.63;;;25.30;99.90;;;;;;5175960;27;20261;-54
2022/06/24 11:15:50;;;;;;;4.47;2.85;;;25.30;99.90;;;;;;5169710;27;20184;-55
2022/06/24 11:18:19;;;;;;;3.97;2.85;;;25.10;99.90;;;;;;5169659;27;20162;-55
2022/06/24 11:20:47;;;;;;;3.92;2.58;;;25.20;99.90;;;;;;5169674;27;20162;-54
2022/06/24 11:23:15;;;;;;;3.90;2.20;;;25.10;99.90;;;;;;5169498;27;20166;-55
2022/06/24 11:25:47;;;;;;;4.70;2.45;;;25.00;99.90;;;;;;5169451;27;20653;-54
2022/06/24 11:28:26;;;;;;;4.85;2.58;;;25.00;99.90;;;;;;5169536;27;20170;-54
2022/06/24 11:30:53;;;;;;;4.43;2.83;;;25.20;99.90;;;;;;5169348;27;20202;-54
2022/06/24 11:33:20;;;;;;;6.25;3.05;;;24.90;99.90;;;;;;5169457;27;20614;-54
2022/06/24 11:35:48;;;;;;;3.33;2.50;;;24.90;99.90;;;;;;5169338;27;20170;-54
2022/06/24 11:38:15;;;;;;;3.47;2.53;;;24.80;99.90;;;;;;5150688;27;20154;-54
2022/06/24 11:40:41;;;;;;;4.88;2.35;;;24.90;99.90;;;;;;5169065;27;20166;-54
2022/06/24 11:43:12;;;;;;;5.35;2.60;;;25.00;99.90;;;;;;5159999;27;20520;-54
2022/06/24 11:45:42;;;;;;;3.45;2.42;;;25.30;99.90;;;;;;5155494;27;20166;-54
2022/06/24 11:48:10;;;;;;;4.38;2.63;;;25.80;99.90;;;;;;5155266;27;20216;-54
2022/06/24 11:50:37;;;;;;;5.20;3.00;;;26.10;99.90;;;;;;5155201;27;20212;-55
2022/06/24 11:53:04;;;;;;;3.53;2.50;;;26.30;99.90;;;;;;5155439;27;20185;-55
2022/06/24 11:55:36;;;;;;;5.88;2.55;;;26.60;99.90;;;;;;5154761;27;20166;-55
2022/06/24 11:58:05;;;;;;;10.98;6.47;;;26.80;99.90;;;;;;5154848;27;20159;-55
2022/06/24 12:00:34;;;;;;;6.13;3.00;;;26.90;99.90;;;;;;5155188;27;20177;-55
2022/06/24 12:03:02;;;;;;;3.22;2.60;;;26.80;99.90;;;;;;5155191;27;20173;-55
2022/06/24 12:05:31;;;;;;;3.05;2.55;;;26.70;99.90;;;;;;5135502;27;20575;-55
2022/06/24 12:07:59;;;;;;;2.90;2.40;;;26.50;99.90;;;;;;5154913;27;20266;-55
2022/06/24 12:10:24;;;;;;;3.03;2.28;;;26.10;99.90;;;;;;5154881;27;20218;-56
2022/06/24 12:13:00;;;;;;;5.10;2.65;;;26.50;99.90;;;;;;5154733;27;20666;-55
2022/06/24 12:15:46;;;;;;;6.60;2.28;;;27.10;99.90;;;;;;5136170;27;20192;-55
2022/06/24 12:18:19;;;;;;;4.18;2.40;;;27.10;99.90;;;;;;5136736;27;20183;-55
2022/06/24 12:21:05;;;;;;;2.50;2.30;;;26.70;99.90;;;;;;5154585;27;20171;-54
2022/06/24 12:23:33;;;;;;;6.00;2.40;;;26.50;99.90;;;;;;5154875;27;20182;-55
2022/06/24 12:26:03;;;;;;;4.90;2.58;;;26.30;99.90;;;;;;5154808;27;20171;-55
2022/06/24 12:28:29;;;;;;;2.83;2.35;;;26.10;99.90;;;;;;5154228;27;20162;-59
2022/06/24 12:31:00;;;;;;;6.32;2.65;;;26.20;99.90;;;;;;5155414;27;20205;-52
2022/06/24 12:33:28;;;;;;;5.50;2.60;;;26.30;99.90;;;;;;5155620;27;20163;-52
2022/06/24 12:36:14;;;;;;;2.83;2.50;;;26.40;99.90;;;;;;5155675;27;20198;-52
2022/06/24 12:38:57;;;;;;;6.97;2.72;;;26.60;99.90;;;;;;5155416;27;20194;-52
2022/06/24 12:41:23;;;;;;;4.32;2.70;;;26.90;99.90;;;;;;5155070;27;20206;-52
2022/06/24 12:43:59;;;;;;;2.78;2.58;;;27.10;99.90;;;;;;5155340;27;20170;-52
2022/06/24 12:50:35;;;;;;;3.42;2.85;;;27.20;99.90;;;;;;5155064;27;20173;-52
2022/06/24 12:52:31;;;;;;;8.25;2.53;;;28.20;99.90;;;;;;5154820;27;20206;-52
2022/06/24 12:54:56;;;;;;;5.72;2.38;;;28.10;99.90;;;;;;5153869;27;20166;-53
2022/06/24 12:57:22;;;;;;;10.07;2.70;;;28.40;99.90;;;;;;5154936;27;20155;-52
2022/06/24 12:59:47;;;;;;;6.88;2.40;;;28.00;99.90;;;;;;5154856;27;20159;-52
2022/06/24 13:02:13;;;;;;;2.45;2.22;;;27.70;99.90;;;;;;5154790;27;20194;-52
2022/06/24 13:04:39;;;;;;;3.03;2.20;;;27.50;99.90;;;;;;5154818;27;20204;-52
2022/06/24 14:10:37;;;;;;;2.50;1.80;;;28.80;99.90;;;;;;5128761;27;20547;-51
2022/06/24 14:13:02;;;;;;;2.03;1.70;;;29.60;99.90;;;;;;5129091;27;20220;-51
2022/06/24 14:15:28;;;;;;;2.75;2.00;;;29.60;99.90;;;;;;5128377;28;20164;-54
2022/06/24 14:17:54;;;;;;;2.50;1.80;;;29.30;99.90;;;;;;5128473;28;20175;-54
2022/06/24 14:20:20;;;;;;;2.08;1.73;;;29.00;99.90;;;;;;5128804;28;20546;-53
2022/06/24 14:25:31;;;;;;;2.15;1.95;;;29.00;99.90;;;;;;5130051;28;20681;-51
2022/06/24 14:27:57;;;;;;;2.85;2.08;;;29.00;99.90;;;;;;5129959;27;20172;-51
2022/06/24 14:30:22;;;;;;;4.05;2.28;;;28.90;99.90;;;;;;5129678;28;20172;-51
2022/06/24 14:32:48;;;;;;;4.38;2.38;;;28.80;99.90;;;;;;5128084;28;20167;-51
2022/06/24 14:35:14;;;;;;;2.50;2.30;;;28.60;99.90;;;;;;5128080;28;20164;-51
2022/06/24 14:40:24;;;;;;;4.05;2.30;;;28.30;99.90;;;;;;5127773;28;20221;-51
2022/06/24 14:42:50;;;;;;;2.50;2.30;;;28.00;99.90;;;;;;5127568;27;20663;-51
2022/06/24 14:45:16;;;;;;;2.55;2.10;;;28.00;99.90;;;;;;5128340;27;20171;-51
2022/06/24 14:47:42;;;;;;;2.75;1.90;;;27.70;99.90;;;;;;5129718;28;20557;-51
2022/06/24 14:50:08;;;;;;;2.50;1.90;;;27.50;99.90;;;;;;5127915;28;20587;-51
2022/06/24 14:52:35;;;;;;;2.90;2.28;;;27.30;99.90;;;;;;5127384;27;20221;-51
2022/06/24 14:55:01;;;;;;;2.70;2.00;;;27.20;99.90;;;;;;5127711;27;20163;-51
2022/06/24 14:57:27;;;;;;;3.35;2.17;;;27.20;99.90;;;;;;5127285;27;20164;-51
2022/06/24 14:59:53;;;;;;;2.33;1.92;;;27.30;99.90;;;;;;5127133;28;20229;-51
2022/06/24 15:02:18;;;;;;;3.67;2.10;;;27.30;99.90;;;;;;5127292;27;20163;-51
2022/06/24 15:04:44;;;;;;;3.28;1.90;;;27.20;99.90;;;;;;5128542;28;20171;-51
2022/06/24 15:07:09;;;;;;;2.20;2.00;;;27.10;99.90;;;;;;5128003;28;20159;-51
2022/06/24 15:09:35;;;;;;;2.03;1.83;;;27.10;99.90;;;;;;5136678;27;20219;-51
2022/06/24 15:12:01;;;;;;;2.22;1.98;;;26.90;99.90;;;;;;5134160;27;20155;-51
2022/06/24 15:14:26;;;;;;;4.07;2.03;;;26.70;99.90;;;;;;5133969;27;20199;-51
2022/06/24 15:16:52;;;;;;;4.95;2.53;;;26.50;99.90;;;;;;5134151;27;20619;-51
2022/06/24 15:19:17;;;;;;;3.40;2.10;;;26.30;99.90;;;;;;5133835;27;20651;-51
2022/06/24 15:21:43;;;;;;;4.88;2.40;;;25.90;99.90;;;;;;5134356;27;20563;-51
2022/06/24 15:24:08;;;;;;;6.75;2.50;;;25.50;99.90;;;;;;5133796;27;20178;-51
2022/06/24 15:26:34;;;;;;;4.68;3.60;;;24.60;99.90;;;;;;5133886;27;20160;-51
2022/06/24 15:29:00;;;;;;;8.52;3.45;;;23.80;99.90;;;;;;5133592;27;20160;-51